createdAt,value
2023-04-02T00:00:29.786Z,2.23
2023-04-02T00:01:29.812Z,2.15
2023-04-02T00:02:29.926Z,2.06
2023-04-02T00:03:29.931Z,2.16
2023-04-02T00:04:29.895Z,2.07
2023-04-02T00:05:29.953Z,2.06
2023-04-02T00:06:29.972Z,2.03
2023-04-02T00:07:29.999Z,2.00
2023-04-02T00:08:30.026Z,1.88
2023-04-02T00:09:30.055Z,1.85
2023-04-02T00:10:30.101Z,1.77
2023-04-02T00:11:30.133Z,1.80
2023-04-02T00:12:30.160Z,1.87
2023-04-02T00:13:30.184Z,2.04
2023-04-02T00:14:30.228Z,2.15
2023-04-02T00:15:30.252Z,2.28
2023-04-02T00:16:30.332Z,2.27
2023-04-02T00:17:30.319Z,2.33
2023-04-02T00:18:30.403Z,2.28
2023-04-02T00:19:30.391Z,2.29
2023-04-02T00:20:30.401Z,2.21
2023-04-02T00:21:30.440Z,2.20
2023-04-02T00:22:30.455Z,2.16
2023-04-02T00:23:30.536Z,2.15
2023-04-02T00:24:30.521Z,2.20
2023-04-02T00:25:30.560Z,2.06
2023-04-02T00:26:30.573Z,2.09
2023-04-02T00:27:30.621Z,2.16
2023-04-02T00:28:30.648Z,2.28
2023-04-02T00:29:30.673Z,2.27
2023-04-02T00:30:30.702Z,2.23
2023-04-02T00:31:30.755Z,2.32
2023-04-02T00:32:30.765Z,2.23
2023-04-02T00:33:30.778Z,2.20
2023-04-02T00:34:30.834Z,2.10
2023-04-02T00:35:30.842Z,2.05
2023-04-02T00:36:30.908Z,2.01
2023-04-02T00:37:30.907Z,2.23
2023-04-02T00:38:30.932Z,2.37
2023-04-02T00:39:30.972Z,2.46
2023-04-02T00:40:31.012Z,2.49
2023-04-02T00:41:31.029Z,2.39
2023-04-02T00:42:31.064Z,2.46
2023-04-02T00:43:31.070Z,2.53
2023-04-02T00:44:31.098Z,2.55
2023-04-02T00:45:31.197Z,2.59
2023-04-02T00:46:31.201Z,2.68
2023-04-02T00:47:31.240Z,2.77
2023-04-02T00:48:31.218Z,2.93
2023-04-02T00:49:31.235Z,2.95
2023-04-02T00:50:31.268Z,2.88
2023-04-02T00:51:31.285Z,3.02
2023-04-02T00:52:31.316Z,2.99
2023-04-02T00:53:31.342Z,2.90
2023-04-02T00:54:31.377Z,2.96
2023-04-02T00:55:31.400Z,2.93
2023-04-02T00:56:31.481Z,2.90
2023-04-02T00:57:31.538Z,2.92
2023-04-02T00:58:31.496Z,2.84
2023-04-02T00:59:31.523Z,2.92
2023-04-02T01:00:31.556Z,2.95
2023-04-02T01:01:31.652Z,2.79
2023-04-02T01:02:31.669Z,2.63
2023-04-02T01:03:31.771Z,2.58
2023-04-02T01:04:31.712Z,2.50
2023-04-02T01:05:31.696Z,2.46
2023-04-02T01:06:31.741Z,2.47
2023-04-02T01:07:31.754Z,2.45
2023-04-02T01:08:31.764Z,2.54
2023-04-02T01:09:31.813Z,2.55
2023-04-02T01:10:31.822Z,2.47
2023-04-02T01:11:31.855Z,2.55
2023-04-02T01:12:31.880Z,2.52
2023-04-02T01:13:31.939Z,2.66
2023-04-02T01:14:31.961Z,2.67
2023-04-02T01:15:32.014Z,2.79
2023-04-02T01:16:32.077Z,2.82
2023-04-02T01:17:32.058Z,2.78
2023-04-02T01:18:32.080Z,2.85
2023-04-02T01:19:32.147Z,2.79
2023-04-02T01:20:32.133Z,2.87
2023-04-02T01:21:32.151Z,2.74
2023-04-02T01:22:32.192Z,2.77
2023-04-02T01:23:32.216Z,2.76
2023-04-02T01:24:32.273Z,2.72
2023-04-02T01:25:32.321Z,2.71
2023-04-02T01:26:32.303Z,2.68
2023-04-02T01:27:32.348Z,2.70
2023-04-02T01:28:32.367Z,2.80
2023-04-02T01:29:32.405Z,2.75
2023-04-02T01:30:32.428Z,2.70
2023-04-02T01:31:32.496Z,2.75
2023-04-02T01:32:32.525Z,2.58
2023-04-02T01:33:32.538Z,2.62
2023-04-02T01:34:32.549Z,2.64
2023-04-02T01:35:32.887Z,2.63
2023-04-02T01:36:32.657Z,2.66
2023-04-02T01:37:32.674Z,2.56
2023-04-02T01:38:32.702Z,2.55
2023-04-02T01:39:32.731Z,2.40
2023-04-02T01:40:32.754Z,2.49
2023-04-02T01:41:32.781Z,2.60
2023-04-02T01:42:32.818Z,2.70
2023-04-02T01:43:32.863Z,2.69
2023-04-02T01:44:32.895Z,2.77
2023-04-02T01:45:33.176Z,2.83
2023-04-02T01:46:32.978Z,2.70
2023-04-02T01:47:33.061Z,2.63
2023-04-02T01:48:33.017Z,2.62
2023-04-02T01:49:33.052Z,2.58
2023-04-02T01:50:33.106Z,2.74
2023-04-02T01:51:33.106Z,3.10
2023-04-02T01:52:33.141Z,3.45
2023-04-02T01:53:33.196Z,3.32
2023-04-02T01:54:33.229Z,3.28
2023-04-02T01:55:33.584Z,3.31
2023-04-02T01:56:33.307Z,3.10
2023-04-02T01:57:33.437Z,2.99
2023-04-02T01:58:33.340Z,2.95
2023-04-02T01:59:33.416Z,2.86
2023-04-02T02:00:33.482Z,2.87
2023-04-02T02:01:34.330Z,2.79
2023-04-02T02:02:33.526Z,2.91
2023-04-02T02:03:33.492Z,3.02
2023-04-02T02:04:33.542Z,2.89
2023-04-02T02:05:33.887Z,2.96
2023-04-02T02:06:33.588Z,2.73
2023-04-02T02:07:33.673Z,2.74
2023-04-02T02:08:33.652Z,2.77
2023-04-02T02:09:33.703Z,2.74
2023-04-02T02:10:33.738Z,2.70
2023-04-02T02:11:33.800Z,2.64
2023-04-02T02:12:33.797Z,2.59
2023-04-02T02:13:33.846Z,2.57
2023-04-02T02:14:33.862Z,2.53
2023-04-02T02:15:34.262Z,2.64
2023-04-02T02:16:33.955Z,2.69
2023-04-02T02:17:34.003Z,2.67
2023-04-02T02:18:34.003Z,2.71
2023-04-02T02:19:34.059Z,2.63
2023-04-02T02:20:34.047Z,2.53
2023-04-02T02:21:34.092Z,2.43
2023-04-02T02:22:34.107Z,2.32
2023-04-02T02:23:34.167Z,2.37
2023-04-02T02:24:34.177Z,2.41
2023-04-02T02:25:34.535Z,2.38
2023-04-02T02:26:34.247Z,2.45
2023-04-02T02:27:34.286Z,2.35
2023-04-02T02:28:34.299Z,2.33
2023-04-02T02:29:34.355Z,2.53
2023-04-02T02:30:34.391Z,2.85
2023-04-02T02:31:34.425Z,2.76
2023-04-02T02:32:34.463Z,2.67
2023-04-02T02:33:34.480Z,2.63
2023-04-02T02:34:34.496Z,2.58
2023-04-02T02:35:34.843Z,2.53
2023-04-02T02:36:34.564Z,2.67
2023-04-02T02:37:34.594Z,2.80
2023-04-02T02:38:34.650Z,2.85
2023-04-02T02:39:34.661Z,2.86
2023-04-02T02:40:34.706Z,2.79
2023-04-02T02:41:34.736Z,2.83
2023-04-02T02:42:34.749Z,2.86
2023-04-02T02:44:53.447Z,0.50
2023-04-02T02:45:53.451Z,0.50
2023-04-02T02:46:53.438Z,0.50
2023-04-02T02:47:53.475Z,0.50
2023-04-02T02:48:53.416Z,0.50
2023-04-02T02:49:53.416Z,0.52
2023-04-02T02:50:53.406Z,0.50
2023-04-02T02:51:53.403Z,0.51
2023-04-02T02:52:53.382Z,0.52
2023-04-02T02:53:53.376Z,0.51
2023-04-02T02:54:53.372Z,0.51
2023-04-02T02:55:53.365Z,0.51
2023-04-02T02:56:53.389Z,0.52
2023-04-02T02:57:53.386Z,0.51
2023-04-02T02:58:53.345Z,0.52
2023-04-02T02:59:53.334Z,0.50
2023-04-02T03:00:53.323Z,0.52
2023-04-02T03:01:53.345Z,0.50
2023-04-02T03:02:53.477Z,0.51
2023-04-02T03:03:53.413Z,0.50
2023-04-02T03:04:53.293Z,0.50
2023-04-02T03:05:53.302Z,0.49
2023-04-02T03:06:53.318Z,0.51
2023-04-02T03:07:53.284Z,0.52
2023-04-02T03:08:53.259Z,0.51
2023-04-02T03:09:53.258Z,0.53
2023-04-02T03:10:53.256Z,0.54
2023-04-02T03:11:53.235Z,0.53
2023-04-02T03:12:53.277Z,0.51
2023-04-02T03:13:53.218Z,0.52
2023-04-02T03:14:53.225Z,0.52
2023-04-02T03:15:53.260Z,0.53
2023-04-02T03:16:53.199Z,0.56
2023-04-02T03:17:53.258Z,0.57
2023-04-02T03:18:53.196Z,0.58
2023-04-02T03:19:53.179Z,0.59
2023-04-02T03:20:53.187Z,0.60
2023-04-02T03:21:53.174Z,0.59
2023-04-02T03:22:53.228Z,0.58
2023-04-02T03:23:53.172Z,0.59
2023-04-02T03:24:53.158Z,0.59
2023-04-02T03:25:53.164Z,0.57
2023-04-02T03:26:53.135Z,0.59
2023-04-02T03:27:53.150Z,0.58
2023-04-02T03:28:53.126Z,0.58
2023-04-02T03:29:53.128Z,0.58
2023-04-02T03:30:53.208Z,0.58
2023-04-02T03:31:53.187Z,0.60
2023-04-02T03:32:53.295Z,0.58
2023-04-02T03:33:53.262Z,0.59
2023-04-02T03:34:53.301Z,0.60
2023-04-02T03:35:53.343Z,0.60
2023-04-02T03:36:53.420Z,0.58
2023-04-02T03:37:53.397Z,0.56
2023-04-02T03:38:53.433Z,0.55
2023-04-02T03:39:53.465Z,0.52
2023-04-02T03:40:53.486Z,0.53
2023-04-02T03:41:53.536Z,0.51
2023-04-02T03:42:53.556Z,0.51
2023-04-02T03:43:53.605Z,0.51
2023-04-02T03:44:53.637Z,0.51
2023-04-02T03:45:53.667Z,0.51
2023-04-02T03:46:53.700Z,0.53
2023-04-02T03:47:53.776Z,0.50
2023-04-02T03:48:53.745Z,0.53
2023-04-02T03:49:53.784Z,0.50
2023-04-02T03:50:53.825Z,0.55
2023-04-02T03:51:53.851Z,0.58
2023-04-02T03:52:53.887Z,0.60
2023-04-02T03:53:53.912Z,0.62
2023-04-02T03:54:54.606Z,0.63
2023-04-02T03:55:53.984Z,0.63
2023-04-02T03:56:54.068Z,0.65
2023-04-02T03:57:54.064Z,0.68
2023-04-02T03:58:54.071Z,0.70
2023-04-02T03:59:54.126Z,0.72
2023-04-02T04:00:54.181Z,0.71
2023-04-02T04:01:54.231Z,0.72
2023-04-02T04:02:54.226Z,0.70
2023-04-02T04:03:54.310Z,0.72
2023-04-02T04:04:54.274Z,0.72
2023-04-02T04:05:54.326Z,0.72
2023-04-02T04:06:54.346Z,0.73
2023-04-02T04:07:54.386Z,0.76
2023-04-02T04:08:54.425Z,0.76
2023-04-02T04:09:54.449Z,0.77
2023-04-02T04:10:54.511Z,0.75
2023-04-02T04:11:54.501Z,0.71
2023-04-02T04:12:54.545Z,0.71
2023-04-02T04:13:54.571Z,0.74
2023-04-02T04:14:54.621Z,0.71
2023-04-02T04:15:54.645Z,0.70
2023-04-02T04:16:54.792Z,0.71
2023-04-02T04:17:54.721Z,0.71
2023-04-02T04:18:54.755Z,0.70
2023-04-02T04:19:54.784Z,0.70
2023-04-02T04:20:54.826Z,0.71
2023-04-02T04:21:54.845Z,0.75
2023-04-02T04:22:54.922Z,0.76
2023-04-02T04:23:54.923Z,0.72
2023-04-02T04:24:54.948Z,0.70
2023-04-02T04:25:55.006Z,0.66
2023-04-02T04:26:55.018Z,0.67
2023-04-02T04:27:55.080Z,0.63
2023-04-02T04:28:55.111Z,0.64
2023-04-02T04:29:55.138Z,0.62
2023-04-02T04:30:55.183Z,0.61
2023-04-02T04:31:55.287Z,0.59
2023-04-02T04:32:55.293Z,0.57
2023-04-02T04:33:55.282Z,0.57
2023-04-02T04:34:55.325Z,0.55
2023-04-02T04:35:55.374Z,0.56
2023-04-02T04:36:55.401Z,0.57
2023-04-02T04:37:55.422Z,0.56
2023-04-02T04:38:55.444Z,0.57
2023-04-02T04:39:55.484Z,0.58
2023-04-02T04:40:55.540Z,0.56
2023-04-02T04:41:55.557Z,0.56
2023-04-02T04:42:55.609Z,0.60
2023-04-02T04:43:55.640Z,0.69
2023-04-02T04:44:55.683Z,0.72
2023-04-02T04:45:55.785Z,0.75
2023-04-02T04:46:55.748Z,0.74
2023-04-02T04:47:55.840Z,0.71
2023-04-02T04:48:55.799Z,0.69
2023-04-02T04:49:55.832Z,0.71
2023-04-02T04:50:55.876Z,0.73
2023-04-02T04:51:55.915Z,0.69
2023-04-02T04:52:55.972Z,0.69
2023-04-02T04:53:55.979Z,0.67
2023-04-02T04:54:56.021Z,0.65
2023-04-02T04:55:58.288Z,0.66
2023-04-02T04:56:57.054Z,0.66
2023-04-02T04:57:56.026Z,0.65
2023-04-02T04:58:56.032Z,0.61
2023-04-02T04:59:56.032Z,0.60
2023-04-02T05:00:56.034Z,0.61
2023-04-02T05:01:56.106Z,0.63
2023-04-02T05:02:56.054Z,0.64
2023-04-02T05:03:55.996Z,0.65
2023-04-02T05:04:56.016Z,0.64
2023-04-02T05:05:55.977Z,0.64
2023-04-02T05:06:55.974Z,0.66
2023-04-02T05:07:56.772Z,0.69
2023-04-02T05:08:55.951Z,0.67
2023-04-02T05:09:55.989Z,0.66
2023-04-02T05:10:56.010Z,0.66
2023-04-02T05:11:56.061Z,0.66
2023-04-02T05:12:56.069Z,0.66
2023-04-02T05:13:56.119Z,0.66
2023-04-02T05:14:56.157Z,0.64
2023-04-02T05:15:56.206Z,0.61
2023-04-02T05:16:56.226Z,0.60
2023-04-02T05:17:56.304Z,0.61
2023-04-02T05:18:56.300Z,0.66
2023-04-02T05:19:56.335Z,0.68
2023-04-02T05:20:56.363Z,0.68
2023-04-02T05:21:56.408Z,0.67
2023-04-02T05:22:56.450Z,0.66
2023-04-02T05:23:56.493Z,0.65
2023-04-02T05:24:56.499Z,0.65
2023-04-02T05:25:56.530Z,0.62
2023-04-02T05:26:56.565Z,0.61
2023-04-02T05:27:56.615Z,0.62
2023-04-02T05:28:56.658Z,0.62
2023-04-02T05:29:56.776Z,0.61
2023-04-02T05:30:56.750Z,0.58
2023-04-02T05:31:56.799Z,0.56
2023-04-02T05:32:56.829Z,0.56
2023-04-02T05:33:56.826Z,0.52
2023-04-02T05:34:56.866Z,0.55
2023-04-02T05:35:56.929Z,0.55
2023-04-02T05:36:56.988Z,0.56
2023-04-02T05:37:56.985Z,0.58
2023-04-02T05:38:57.017Z,0.60
2023-04-02T05:39:57.063Z,0.58
2023-04-02T05:40:57.073Z,0.56
2023-04-02T05:41:57.148Z,0.55
2023-04-02T05:42:57.146Z,0.55
2023-04-02T05:43:57.175Z,0.56
2023-04-02T05:44:57.213Z,0.57
2023-04-02T05:45:57.264Z,0.57
2023-04-02T05:46:57.381Z,0.57
2023-04-02T05:47:57.377Z,0.57
2023-04-02T05:48:57.348Z,0.57
2023-04-02T05:49:57.382Z,0.60
2023-04-02T05:50:57.407Z,0.62
2023-04-02T05:51:57.757Z,0.62
2023-04-02T05:52:57.581Z,0.62
2023-04-02T05:53:57.527Z,0.64
2023-04-02T05:54:57.547Z,0.64
2023-04-02T05:55:57.576Z,0.63
2023-04-02T05:56:57.626Z,0.60
2023-04-02T05:58:21.229Z,0.58
2023-04-02T05:58:58.718Z,0.58
2023-04-02T05:59:57.624Z,0.58
2023-04-02T06:00:57.617Z,0.59
2023-04-02T06:01:57.630Z,0.60
2023-04-02T06:02:57.656Z,0.62
2023-04-02T06:03:57.641Z,0.63
2023-04-02T06:04:57.589Z,0.60
2023-04-02T06:05:57.585Z,0.61
2023-04-02T06:06:57.568Z,0.60
2023-04-02T06:07:57.568Z,0.59
2023-04-02T06:08:57.554Z,0.57
2023-04-02T06:09:57.545Z,0.58
2023-04-02T06:10:57.536Z,0.59
2023-04-02T06:11:57.566Z,0.62
2023-04-02T06:12:57.588Z,0.66
2023-04-02T06:13:57.613Z,0.66
2023-04-02T06:14:57.743Z,0.69
2023-04-02T06:15:57.677Z,0.69
2023-04-02T06:16:57.772Z,0.67
2023-04-02T06:17:57.756Z,0.72
2023-04-02T06:18:57.744Z,0.69
2023-04-02T06:19:57.794Z,0.72
2023-04-02T06:20:57.814Z,0.72
2023-04-02T06:21:57.822Z,0.71
2023-04-02T06:22:57.852Z,0.69
2023-04-02T06:23:57.897Z,0.68
2023-04-02T06:24:57.911Z,0.71
2023-04-02T06:25:57.935Z,0.70
2023-04-02T06:26:57.959Z,0.72
2023-04-02T06:27:57.977Z,0.70
2023-04-02T06:28:57.979Z,0.72
2023-04-02T06:29:58.000Z,0.70
2023-04-02T06:30:58.068Z,0.71
2023-04-02T06:31:58.029Z,0.70
2023-04-02T06:32:58.134Z,0.67
2023-04-02T06:33:58.056Z,0.66
2023-04-02T06:34:58.068Z,0.65
2023-04-02T06:35:58.124Z,0.65
2023-04-02T06:36:58.196Z,0.64
2023-04-02T06:37:58.117Z,0.64
2023-04-02T06:38:58.111Z,0.69
2023-04-02T06:39:58.111Z,0.72
2023-04-02T06:40:58.918Z,0.69
2023-04-02T06:41:58.117Z,0.70
2023-04-02T06:42:58.124Z,0.69
2023-04-02T06:43:58.129Z,0.69
2023-04-02T06:44:58.146Z,0.72
2023-04-02T06:45:58.191Z,0.70
2023-04-02T06:46:58.141Z,0.70
2023-04-02T06:47:58.195Z,0.74
2023-04-02T06:48:58.159Z,0.74
2023-04-02T06:49:58.153Z,0.73
2023-04-02T06:50:58.150Z,0.76
2023-04-02T06:51:58.177Z,0.76
2023-04-02T06:52:58.146Z,0.70
2023-04-02T06:53:58.144Z,0.70
2023-04-02T06:54:58.170Z,0.72
2023-04-02T06:55:58.136Z,0.70
2023-04-02T06:56:58.179Z,0.70
2023-04-02T06:57:58.236Z,0.72
2023-04-02T06:58:58.136Z,0.73
2023-04-02T06:59:58.147Z,0.72
2023-04-02T07:00:58.175Z,0.73
2023-04-02T07:01:58.205Z,0.75
2023-04-02T07:02:58.273Z,0.78
2023-04-02T07:03:58.286Z,0.72
2023-04-02T07:04:58.286Z,0.74
2023-04-02T07:05:58.276Z,0.76
2023-04-02T07:06:58.308Z,0.76
2023-04-02T07:07:58.357Z,0.78
2023-04-02T07:08:58.401Z,0.78
2023-04-02T07:09:58.448Z,0.80
2023-04-02T07:10:58.501Z,0.82
2023-04-02T07:11:58.556Z,0.81
2023-04-02T07:12:58.610Z,0.84
2023-04-02T07:13:58.664Z,0.79
2023-04-02T07:14:58.727Z,0.79
2023-04-02T07:15:58.842Z,0.79
2023-04-02T07:16:58.870Z,0.74
2023-04-02T07:17:58.962Z,0.74
2023-04-02T07:18:58.968Z,0.79
2023-04-02T07:19:59.019Z,0.81
2023-04-02T07:20:59.171Z,0.80
2023-04-02T07:21:59.169Z,0.78
2023-04-02T07:22:59.207Z,0.83
2023-04-02T07:23:59.265Z,0.78
2023-04-02T07:24:59.341Z,0.85
2023-04-02T07:25:59.397Z,0.86
2023-04-02T07:26:59.482Z,0.85
2023-04-02T07:27:59.496Z,0.84
2023-04-02T07:28:59.603Z,0.83
2023-04-02T07:29:59.647Z,0.88
2023-04-02T07:30:59.706Z,0.83
2023-04-02T07:31:59.783Z,0.84
2023-04-02T07:32:59.898Z,0.82
2023-04-02T07:33:59.940Z,0.85
2023-04-02T07:34:59.916Z,0.84
2023-04-02T07:36:00.009Z,0.81
2023-04-02T07:37:00.044Z,0.81
2023-04-02T07:38:00.112Z,0.81
2023-04-02T07:39:00.158Z,0.80
2023-04-02T07:40:00.204Z,0.76
2023-04-02T07:41:00.257Z,0.81
2023-04-02T07:42:00.327Z,0.79
2023-04-02T07:43:00.463Z,0.78
2023-04-02T07:44:00.428Z,0.78
2023-04-02T07:45:00.465Z,0.79
2023-04-02T07:46:00.537Z,0.77
2023-04-02T07:47:00.648Z,0.78
2023-04-02T07:48:00.670Z,0.80
2023-04-02T07:49:00.756Z,0.78
2023-04-02T07:50:00.764Z,0.78
2023-04-02T07:51:00.792Z,0.75
2023-04-02T07:52:00.840Z,0.74
2023-04-02T07:53:00.901Z,0.76
2023-04-02T07:54:00.999Z,0.76
2023-04-02T07:55:01.024Z,0.74
2023-04-02T07:56:01.104Z,0.73
2023-04-02T07:57:01.211Z,0.74
2023-04-02T07:58:01.206Z,0.76
2023-04-02T07:59:01.242Z,0.78
2023-04-02T08:00:01.301Z,0.79
2023-04-02T08:01:01.386Z,0.78
2023-04-02T08:02:01.494Z,0.75
2023-04-02T08:03:01.564Z,0.74
2023-04-02T08:04:01.567Z,0.72
2023-04-02T08:05:01.691Z,0.71
2023-04-02T08:06:01.649Z,0.72
2023-04-02T08:07:01.708Z,0.72
2023-04-02T08:08:01.767Z,0.69
2023-04-02T08:09:01.818Z,0.69
2023-04-02T08:10:01.869Z,0.71
2023-04-02T08:11:01.908Z,0.70
2023-04-02T08:12:01.971Z,0.66
2023-04-02T08:13:02.044Z,0.67
2023-04-02T08:14:02.111Z,0.67
2023-04-02T08:15:02.155Z,0.67
2023-04-02T08:16:02.228Z,0.70
2023-04-02T08:17:02.434Z,0.66
2023-04-02T08:18:02.389Z,0.64
2023-04-02T08:19:02.417Z,0.57
2023-04-02T08:20:02.444Z,0.57
2023-04-02T08:21:02.512Z,0.60
2023-04-02T08:22:02.564Z,0.60
2023-04-02T08:23:02.620Z,0.57
2023-04-02T08:24:02.693Z,0.54
2023-04-02T08:25:02.740Z,0.52
2023-04-02T08:26:02.775Z,0.54
2023-04-02T08:27:02.840Z,0.54
2023-04-02T08:28:03.006Z,0.51
2023-04-02T08:29:02.956Z,0.53
2023-04-02T08:30:03.022Z,0.56
2023-04-02T08:31:03.092Z,0.59
2023-04-02T08:32:03.115Z,0.59
2023-04-02T08:33:03.358Z,0.52
2023-04-02T08:34:03.255Z,0.52
2023-04-02T08:35:03.281Z,0.51
2023-04-02T08:36:03.357Z,0.51
2023-04-02T08:37:03.421Z,0.50
2023-04-02T08:38:03.436Z,0.52
2023-04-02T08:39:03.512Z,0.54
2023-04-02T08:40:03.561Z,0.50
2023-04-02T08:41:03.610Z,0.51
2023-04-02T08:42:03.650Z,0.56
2023-04-02T08:43:03.727Z,0.62
2023-04-02T08:44:03.783Z,0.62
2023-04-02T08:45:10.899Z,0.56
2023-04-02T08:46:04.867Z,0.56
2023-04-02T08:47:03.810Z,0.54
2023-04-02T08:48:03.858Z,0.52
2023-04-02T08:49:03.808Z,0.53
2023-04-02T08:50:03.874Z,0.52
2023-04-02T08:51:03.818Z,0.55
2023-04-02T08:52:03.775Z,0.53
2023-04-02T08:53:03.784Z,0.50
2023-04-02T08:54:03.793Z,0.52
2023-04-02T08:55:03.838Z,0.50
2023-04-02T08:56:03.878Z,0.51
2023-04-02T08:57:04.523Z,0.51
2023-04-02T08:58:04.012Z,0.51
2023-04-02T08:59:04.044Z,0.54
2023-04-02T09:00:04.109Z,0.55
2023-04-02T09:01:04.196Z,0.53
2023-04-02T09:02:04.281Z,0.52
2023-04-02T09:03:04.306Z,0.54
2023-04-02T09:04:04.353Z,0.50
2023-04-02T09:05:04.423Z,0.52
2023-04-02T09:06:04.460Z,0.54
2023-04-02T09:07:04.497Z,0.50
2023-04-02T09:08:04.550Z,0.54
2023-04-02T09:09:04.651Z,0.54
2023-04-02T09:10:04.688Z,0.56
2023-04-02T09:11:04.728Z,0.60
2023-04-02T09:12:04.877Z,0.52
2023-04-02T09:13:04.824Z,0.50
2023-04-02T09:14:04.917Z,0.59
2023-04-02T09:15:04.997Z,0.50
2023-04-02T09:16:05.067Z,0.52
2023-04-02T09:17:05.053Z,0.55
2023-04-02T09:18:05.134Z,0.59
2023-04-02T09:19:05.188Z,0.54
2023-04-02T09:20:05.215Z,0.53
2023-04-02T09:21:05.258Z,0.56
2023-04-02T09:22:05.326Z,0.53
2023-04-02T09:23:05.379Z,0.50
2023-04-02T09:24:05.503Z,0.50
2023-04-02T09:25:05.466Z,0.57
2023-04-02T09:26:05.532Z,0.53
2023-04-02T09:27:05.584Z,0.53
2023-04-02T09:28:05.671Z,0.50
2023-04-02T09:29:05.718Z,0.54
2023-04-02T09:30:05.752Z,0.55
2023-04-02T09:31:07.110Z,0.59
2023-04-02T09:32:05.876Z,0.61
2023-04-02T09:33:05.959Z,0.53
2023-04-02T09:34:05.993Z,0.56
2023-04-02T09:35:18.513Z,0.56
2023-04-02T09:36:07.071Z,0.51
2023-04-02T09:37:06.016Z,0.55
2023-04-02T09:38:06.003Z,0.47
2023-04-02T09:39:05.994Z,0.48
2023-04-02T09:40:05.990Z,0.48
2023-04-02T09:41:06.003Z,0.50
2023-04-02T09:42:06.137Z,0.49
2023-04-02T09:43:05.987Z,0.53
2023-04-02T09:44:05.996Z,0.59
2023-04-02T09:45:06.089Z,0.64
2023-04-02T09:46:06.106Z,0.65
2023-04-02T09:47:06.289Z,0.64
2023-04-02T09:48:06.274Z,0.64
2023-04-02T09:49:06.305Z,0.72
2023-04-02T09:50:06.342Z,0.70
2023-04-02T09:51:06.445Z,0.71
2023-04-02T09:52:06.451Z,0.77
2023-04-02T09:53:06.501Z,0.61
2023-04-02T09:54:06.561Z,0.51
2023-04-02T09:55:06.608Z,0.50
2023-04-02T09:56:06.693Z,0.58
2023-04-02T09:57:06.858Z,0.76
2023-04-02T09:58:06.776Z,0.76
2023-04-02T09:59:06.841Z,0.57
2023-04-02T10:01:06.989Z,0.68
2023-04-02T10:02:06.996Z,0.73
2023-04-02T10:03:07.137Z,0.77
2023-04-02T10:04:07.147Z,0.73
2023-04-02T10:05:07.165Z,0.62
2023-04-02T10:06:07.249Z,0.68
2023-04-02T10:07:07.302Z,0.70
2023-04-02T10:08:07.343Z,0.70
2023-04-02T10:09:07.397Z,0.68
2023-04-02T10:10:07.438Z,0.73
2023-04-02T10:11:07.500Z,0.66
2023-04-02T10:12:07.554Z,0.66
2023-04-02T10:13:07.627Z,0.69
2023-04-02T10:14:07.700Z,0.62
2023-04-02T10:15:07.761Z,0.60
2023-04-02T10:16:07.859Z,0.66
2023-04-02T10:17:07.946Z,0.75
2023-04-02T10:18:07.932Z,0.69
2023-04-02T10:19:08.067Z,0.67
2023-04-02T10:20:08.037Z,0.65
2023-04-02T10:21:08.075Z,0.68
2023-04-02T10:22:08.145Z,0.68
2023-04-02T10:23:08.195Z,0.70
2023-04-02T10:24:08.273Z,0.82
2023-04-02T10:25:08.319Z,0.62
2023-04-02T10:26:08.375Z,0.70
2023-04-02T10:27:08.427Z,0.68
2023-04-02T10:28:08.500Z,0.65
2023-04-02T10:29:08.558Z,0.80
2023-04-02T10:30:08.609Z,0.80
2023-04-02T10:31:08.690Z,0.78
2023-04-02T10:32:08.702Z,0.66
2023-04-02T10:33:08.784Z,0.73
2023-04-02T10:34:08.832Z,0.62
2023-04-02T10:35:08.890Z,0.70
2023-04-02T10:36:08.968Z,0.59
2023-04-02T10:37:08.978Z,0.69
2023-04-02T10:38:09.039Z,0.66
2023-04-02T10:39:09.108Z,0.69
2023-04-02T10:40:09.163Z,0.67
2023-04-02T10:41:09.298Z,0.66
2023-04-02T10:42:09.278Z,0.75
2023-04-02T10:43:09.324Z,0.72
2023-04-02T10:44:19.518Z,0.75
2023-04-02T10:45:10.404Z,0.75
2023-04-02T10:46:09.410Z,0.65
2023-04-02T10:47:09.367Z,0.68
2023-04-02T10:48:09.447Z,0.57
2023-04-02T10:49:09.421Z,0.65
2023-04-02T10:50:09.363Z,0.63
2023-04-02T10:51:09.333Z,0.54
2023-04-02T10:52:09.363Z,0.64
2023-04-02T10:53:09.331Z,0.59
2023-04-02T10:54:09.381Z,0.67
2023-04-02T10:55:09.427Z,0.71
2023-04-02T10:56:09.481Z,0.61
2023-04-02T10:57:09.643Z,0.59
2023-04-02T10:58:09.572Z,0.63
2023-04-02T10:59:09.620Z,0.62
2023-04-02T11:00:09.656Z,0.59
2023-04-02T11:01:09.798Z,0.64
2023-04-02T11:02:09.765Z,0.63
2023-04-02T11:03:09.893Z,0.58
2023-04-02T11:04:09.974Z,0.52
2023-04-02T11:05:09.925Z,0.50
2023-04-02T11:06:12.017Z,0.61
2023-04-02T11:07:14.397Z,0.67
2023-04-02T11:08:10.021Z,0.57
2023-04-02T11:09:10.017Z,0.64
2023-04-02T11:10:10.013Z,0.50
2023-04-02T11:11:10.020Z,0.54
2023-04-02T11:12:09.992Z,0.51
2023-04-02T11:13:09.993Z,0.63
2023-04-02T11:14:09.986Z,0.58
2023-04-02T11:15:10.000Z,0.67
2023-04-02T11:16:10.011Z,0.58
2023-04-02T11:17:09.990Z,0.59
2023-04-02T11:18:10.054Z,0.60
2023-04-02T11:19:10.111Z,0.50
2023-04-02T11:20:10.141Z,0.59
2023-04-02T11:21:10.212Z,0.62
2023-04-02T11:22:10.262Z,0.63
2023-04-02T11:23:10.337Z,0.62
2023-04-02T11:24:10.384Z,0.69
2023-04-02T11:25:10.419Z,0.71
2023-04-02T11:26:10.554Z,0.57
2023-04-02T11:27:10.529Z,0.59
2023-04-02T11:28:10.565Z,0.59
2023-04-02T11:29:10.600Z,0.58
2023-04-02T11:30:10.730Z,0.66
2023-04-02T11:31:10.751Z,0.64
2023-04-02T11:32:10.779Z,0.59
2023-04-02T11:33:10.868Z,0.72
2023-04-02T11:34:10.890Z,0.69
2023-04-02T11:35:10.930Z,0.56
2023-04-02T11:36:11.018Z,0.58
2023-04-02T11:37:11.060Z,0.63
2023-04-02T11:38:11.105Z,0.62
2023-04-02T11:39:17.324Z,0.60
2023-04-02T11:40:12.207Z,0.52
2023-04-02T11:41:11.140Z,0.50
2023-04-02T11:42:11.141Z,0.59
2023-04-02T11:43:11.111Z,0.59
2023-04-02T11:44:11.124Z,0.61
2023-04-02T11:45:11.112Z,0.49
2023-04-02T11:46:11.371Z,0.44
2023-04-02T11:47:11.098Z,0.76
2023-04-02T11:48:11.187Z,0.58
2023-04-02T11:49:11.183Z,0.61
2023-04-02T11:50:11.201Z,0.51
2023-04-02T11:51:11.259Z,0.58
2023-04-02T11:52:12.617Z,0.57
2023-04-02T11:53:11.400Z,0.51
2023-04-02T11:54:11.430Z,0.65
2023-04-02T11:55:11.484Z,0.57
2023-04-02T11:56:11.567Z,0.55
2023-04-02T11:57:11.612Z,0.58
2023-04-02T11:58:11.649Z,0.62
2023-04-02T11:59:11.719Z,0.65
2023-04-02T12:00:11.766Z,0.58
2023-04-02T12:01:11.790Z,0.56
2023-04-02T12:02:11.885Z,0.60
2023-04-02T12:03:11.937Z,0.60
2023-04-02T12:04:11.965Z,0.61
2023-04-02T12:05:12.057Z,0.70
2023-04-02T12:06:12.075Z,0.62
2023-04-02T12:07:12.129Z,0.69
2023-04-02T12:08:12.193Z,0.58
2023-04-02T12:09:12.252Z,0.57
2023-04-02T12:10:12.387Z,0.54
2023-04-02T12:11:12.355Z,0.60
2023-04-02T12:12:12.427Z,0.67
2023-04-02T12:13:12.456Z,0.73
2023-04-02T12:14:12.525Z,0.69
2023-04-02T12:15:12.574Z,0.68
2023-04-02T12:16:12.626Z,0.73
2023-04-02T12:17:12.821Z,0.67
2023-04-02T12:18:12.720Z,0.60
2023-04-02T12:19:12.766Z,0.61
2023-04-02T12:20:12.834Z,0.53
2023-04-02T12:21:12.891Z,0.66
2023-04-02T12:22:12.923Z,0.58
2023-04-02T12:23:12.993Z,0.60
2023-04-02T12:24:13.042Z,0.52
2023-04-02T12:25:13.101Z,0.61
2023-04-02T12:26:13.166Z,0.67
2023-04-02T12:27:13.209Z,0.60
2023-04-02T12:28:13.262Z,0.61
2023-04-02T12:29:13.320Z,0.53
2023-04-02T12:30:13.379Z,0.50
2023-04-02T12:31:13.497Z,0.63
2023-04-02T12:32:13.510Z,0.77
2023-04-02T12:33:13.707Z,0.80
2023-04-02T12:34:13.631Z,0.66
2023-04-02T12:35:13.662Z,0.67
2023-04-02T12:36:13.743Z,0.66
2023-04-02T12:37:13.783Z,0.70
2023-04-02T12:38:13.824Z,0.71
2023-04-02T12:39:13.889Z,0.66
2023-04-02T12:40:13.942Z,0.68
2023-04-02T12:41:14.005Z,0.69
2023-04-02T12:42:14.055Z,0.75
2023-04-02T12:43:14.108Z,0.62
2023-04-02T12:44:14.172Z,0.61
2023-04-02T12:45:14.237Z,0.71
2023-04-02T12:46:14.346Z,0.68
2023-04-02T12:47:14.336Z,0.73
2023-04-02T12:48:14.392Z,0.72
2023-04-02T12:49:14.453Z,0.69
2023-04-02T12:50:14.510Z,0.81
2023-04-02T12:51:15.243Z,0.64
2023-04-02T12:52:14.635Z,0.56
2023-04-02T12:53:14.692Z,0.67
2023-04-02T12:54:14.748Z,0.65
2023-04-02T12:55:14.890Z,0.70
2023-04-02T12:56:14.837Z,0.62
2023-04-02T12:57:14.915Z,0.62
2023-04-02T12:58:14.962Z,0.75
2023-04-02T12:59:14.994Z,0.75
2023-04-02T13:00:15.043Z,0.78
2023-04-02T13:01:15.108Z,0.66
2023-04-02T13:02:15.178Z,0.66
2023-04-02T13:03:15.327Z,0.59
2023-04-02T13:04:15.362Z,0.59
2023-04-02T13:05:15.313Z,0.66
2023-04-02T13:06:15.354Z,0.58
2023-04-02T13:07:15.412Z,0.60
2023-04-02T13:08:15.467Z,0.58
2023-04-02T13:09:15.544Z,0.73
2023-04-02T13:10:15.594Z,0.69
2023-04-02T13:11:15.648Z,0.59
2023-04-02T13:12:15.704Z,0.56
2023-04-02T13:13:15.773Z,0.59
2023-04-02T13:14:15.834Z,0.63
2023-04-02T13:15:15.873Z,0.66
2023-04-02T13:16:15.974Z,0.55
2023-04-02T13:17:16.083Z,0.50
2023-04-02T13:18:16.035Z,0.52
2023-04-02T13:19:16.083Z,0.60
2023-04-02T13:20:16.155Z,0.58
2023-04-02T13:21:16.207Z,0.69